Time;durP1;ratioP1;P1;durP2;ratioP2;P2;SDS_P1;SDS_P2;PMS_P1;PMS_P2;Temp;Humidity;BMP_temperature;BMP_pressure;BME280_temperature;BME280_humidity;BME280_pressure;Samples;Min_cycle;Max_cycle;Signal;HPM_P1;HPM_P2
2023/08/17 00:00:53;;;;;;;0.30;0.30;;;;;;;16.48;89.29;99965.50;4841304;29;20053;-84
2023/08/17 00:03:21;;;;;;;0.40;0.40;;;;;;;16.43;89.26;99949.97;4839754;29;20054;-84
2023/08/17 00:05:48;;;;;;;0.30;0.30;;;;;;;16.49;89.63;99966.34;4840881;29;20145;-84
2023/08/17 00:08:15;;;;;;;0.30;0.30;;;;;;;16.45;89.80;99961.41;4840764;29;20073;-84
2023/08/17 00:10:42;;;;;;;0.30;0.30;;;;;;;16.52;89.61;99965.81;4841170;29;20092;-84
2023/08/17 00:13:09;;;;;;;0.38;0.38;;;;;;;16.46;89.66;99968.50;4824432;29;20404;-84
2023/08/17 00:15:37;;;;;;;0.30;0.30;;;;;;;16.43;89.63;99971.75;4841033;29;20069;-84
2023/08/17 00:18:04;;;;;;;0.30;0.30;;;;;;;16.38;89.89;99970.88;4841098;29;20045;-84
2023/08/17 00:20:31;;;;;;;0.30;0.30;;;;;;;16.35;90.25;99965.94;4842950;29;20070;-84
2023/08/17 00:22:58;;;;;;;0.30;0.30;;;;;;;16.31;90.36;99959.38;4844425;29;20529;-84
2023/08/17 00:25:25;;;;;;;0.30;0.30;;;;;;;16.31;90.43;99965.66;4841164;29;20057;-84
2023/08/17 00:27:53;;;;;;;0.30;0.30;;;;;;;16.32;90.22;99972.72;4841033;29;20058;-85
2023/08/17 00:30:20;;;;;;;0.30;0.30;;;;;;;16.32;90.44;99972.72;4824544;29;20054;-83
2023/08/17 00:32:48;;;;;;;0.30;0.30;;;;;;;16.28;90.64;99977.06;4824822;29;20058;-84
2023/08/17 00:35:15;;;;;;;0.30;0.30;;;;;;;16.27;90.82;99975.41;4843883;29;20061;-85
2023/08/17 00:37:42;;;;;;;0.30;0.30;;;;;;;16.22;90.85;99981.63;4843642;29;20106;-85
2023/08/17 00:40:10;;;;;;;0.30;0.30;;;;;;;16.21;91.25;99988.16;4859139;29;20049;-84
2023/08/17 00:42:37;;;;;;;0.30;0.30;;;;;;;16.15;91.44;99980.19;4859547;29;20080;-85
2023/08/17 00:45:05;;;;;;;0.30;0.30;;;;;;;16.18;91.51;99990.56;4859418;29;20141;-85
2023/08/17 00:47:33;;;;;;;0.30;0.30;;;;;;;16.21;91.45;99984.63;4870129;29;20127;-84
2023/08/17 00:50:00;;;;;;;0.30;0.30;;;;;;;16.20;91.53;99985.69;4858678;29;20141;-86
2023/08/17 00:52:32;;;;;;;0.30;0.30;;;;;;;16.16;91.86;99982.66;4843164;29;20065;-85
2023/08/17 00:55:00;;;;;;;0.30;0.30;;;;;;;16.17;91.98;99986.22;4842410;29;20113;-85
2023/08/17 00:57:30;;;;;;;0.30;0.30;;;;;;;16.16;91.78;99984.56;4843150;29;20476;-83
2023/08/17 00:59:58;;;;;;;0.30;0.30;;;;;;;16.14;91.91;99986.72;4858442;29;20088;-83
2023/08/17 01:02:32;;;;;;;0.30;0.30;;;;;;;16.10;92.22;99986.41;4858699;29;20061;-84
2023/08/17 01:05:01;;;;;;;0.30;0.30;;;;;;;16.04;92.13;99982.00;4858621;29;20057;-83
2023/08/17 01:07:30;;;;;;;0.30;0.30;;;;;;;16.06;92.51;99984.47;4842552;29;20080;-83
2023/08/17 01:09:59;;;;;;;0.32;0.32;;;;;;;15.99;92.66;99979.22;4842202;29;20086;-85
2023/08/17 01:12:41;;;;;;;0.30;0.30;;;;;;;16.03;92.88;99986.63;4859598;29;20057;-84
2023/08/17 01:15:10;;;;;;;0.30;0.30;;;;;;;16.00;92.98;99983.56;4828272;29;20521;-84
2023/08/17 01:17:44;;;;;;;0.30;0.30;;;;;;;16.02;93.02;99978.69;4858638;29;20054;-84
2023/08/17 01:20:14;;;;;;;0.38;0.38;;;;;;;16.01;92.99;99979.78;4844918;29;20517;-83
2023/08/17 01:22:42;;;;;;;0.40;0.40;;;;;;;16.04;92.68;99982.00;4846096;29;20049;-84
2023/08/17 01:25:09;;;;;;;0.30;0.30;;;;;;;16.04;92.68;99976.56;4845640;29;20050;-83
2023/08/17 01:27:40;;;;;;;0.40;0.40;;;;;;;16.01;92.86;99985.25;4845812;29;20079;-85
2023/08/17 01:30:11;;;;;;;0.30;0.30;;;;;;;15.99;92.90;99984.66;4846017;29;20105;-84
2023/08/17 01:32:53;;;;;;;0.40;0.40;;;;;;;15.95;93.18;99988.97;4862364;29;20106;-83
2023/08/17 01:35:27;;;;;;;0.30;0.30;;;;;;;15.92;93.22;99989.47;4846411;29;20064;-85
2023/08/17 01:37:56;;;;;;;;;;;;;;;15.89;93.03;99990.00;4847486;29;20081;-83
2023/08/17 01:40:23;;;;;;;0.30;0.30;;;;;;;15.77;93.00;99976.53;4862138;29;19928;-84
2023/08/17 01:42:51;;;;;;;0.30;0.30;;;;;;;15.80;93.34;99976.03;4862442;29;20053;-83
2023/08/17 01:45:18;;;;;;;0.30;0.30;;;;;;;15.86;93.86;99990.53;4861812;29;20049;-82
2023/08/17 01:47:45;;;;;;;0.30;0.30;;;;;;;15.85;93.80;99988.84;4862005;29;20056;-83
2023/08/17 01:50:13;;;;;;;0.40;0.40;;;;;;;15.74;94.00;99988.75;4861788;29;20058;-82
2023/08/17 01:52:40;;;;;;;0.30;0.30;;;;;;;15.79;94.22;99998.88;4861395;29;20140;-83
2023/08/17 01:55:08;;;;;;;0.30;0.30;;;;;;;15.79;94.31;99996.16;4861350;29;20045;-83
2023/08/17 01:57:38;;;;;;;0.40;0.40;;;;;;;15.81;94.34;99996.72;4861617;29;20046;-83
2023/08/17 02:00:06;;;;;;;0.32;0.32;;;;;;;15.82;94.35;99992.91;4840266;29;20061;-82
2023/08/17 02:02:40;;;;;;;0.30;0.30;;;;;;;15.76;94.47;99991.22;4838514;29;20095;-86
2023/08/17 02:05:08;;;;;;;0.40;0.40;;;;;;;15.78;94.53;99994.53;4840370;29;20076;-85
2023/08/17 02:07:41;;;;;;;0.30;0.30;;;;;;;15.84;94.58;99990.75;4845540;29;20078;-84
2023/08/17 02:10:09;;;;;;;0.40;0.40;;;;;;;15.83;94.33;99997.28;4833921;29;20149;-84
2023/08/17 02:12:36;;;;;;;0.40;0.40;;;;;;;15.81;94.30;99994.00;4851063;29;20102;-86
2023/08/17 02:15:03;;;;;;;0.38;0.38;;;;;;;15.80;94.67;99995.09;4861212;29;20073;-86
2023/08/17 02:17:31;;;;;;;0.40;0.40;;;;;;;15.80;94.61;99998.63;4859392;29;20113;-83
2023/08/17 02:19:58;;;;;;;0.40;0.40;;;;;;;15.77;94.81;99999.16;4837346;29;20098;-81
2023/08/17 02:22:25;;;;;;;0.30;0.30;;;;;;;15.82;94.76;99998.34;4853591;29;20053;-84
2023/08/17 02:24:54;;;;;;;0.40;0.40;;;;;;;15.85;94.72;99999.75;4858357;29;20054;-84
2023/08/17 02:27:22;;;;;;;0.40;0.40;;;;;;;15.83;94.53;100002.75;4847713;29;20054;-86
2023/08/17 02:29:50;;;;;;;0.30;0.30;;;;;;;15.80;94.85;99997.81;4848192;29;20065;-87
2023/08/17 02:32:18;;;;;;;0.40;0.40;;;;;;;15.80;94.58;99997.81;4853745;29;20148;-83
2023/08/17 02:34:46;;;;;;;0.40;0.40;;;;;;;15.80;94.64;100003.25;4850610;29;20041;-85
2023/08/17 02:37:14;;;;;;;0.40;0.40;;;;;;;15.82;94.68;100001.06;4843740;29;20075;-86
2023/08/17 02:39:41;;;;;;;0.40;0.40;;;;;;;15.84;94.65;100006.28;4838358;29;20132;-85
2023/08/17 02:42:08;;;;;;;0.40;0.40;;;;;;;15.84;94.53;100001.66;4850798;29;20088;-80
2023/08/17 02:44:35;;;;;;;0.30;0.30;;;;;;;15.85;94.54;99992.44;4841378;29;20136;-83
2023/08/17 02:47:03;;;;;;;0.40;0.40;;;;;;;15.84;94.36;99993.47;4865007;29;20057;-84
2023/08/17 02:49:30;;;;;;;0.30;0.30;;;;;;;15.90;94.23;100000.66;4863059;29;20053;-88
2023/08/17 02:51:58;;;;;;;0.40;0.40;;;;;;;15.96;93.84;99996.88;4844936;29;20046;-85
2023/08/17 02:54:25;;;;;;;0.40;0.40;;;;;;;16.06;93.71;100007.06;4825691;29;20166;-84
2023/08/17 02:56:52;;;;;;;0.40;0.40;;;;;;;16.12;93.34;100005.22;4839371;29;20180;-88
2023/08/17 02:59:21;;;;;;;0.40;0.40;;;;;;;16.17;93.03;100008.81;4848741;29;20049;-90
2023/08/17 03:01:48;;;;;;;0.32;0.32;;;;;;;16.21;92.95;100004.50;4847145;29;20509;-91
2023/08/17 03:04:16;;;;;;;0.30;0.30;;;;;;;16.31;92.65;100011.97;4865719;29;20097;-85
2023/08/17 03:06:43;;;;;;;0.35;0.35;;;;;;;16.35;92.33;100015.78;4843932;29;20050;-85
2023/08/17 03:09:10;;;;;;;0.40;0.40;;;;;;;16.41;92.28;100020.22;4843776;29;20059;-85
2023/08/17 03:11:39;;;;;;;0.30;0.30;;;;;;;16.44;92.26;99999.81;4859528;29;20050;-87
2023/08/17 03:14:06;;;;;;;0.30;0.30;;;;;;;16.47;91.82;100002.81;4822099;29;20513;-90
2023/08/17 03:16:33;;;;;;;0.40;0.40;;;;;;;16.54;91.52;100001.81;4829120;29;20053;-83
2023/08/17 03:19:01;;;;;;;0.40;0.40;;;;;;;16.70;91.01;100006.28;4882388;24;20057;-83
2023/08/17 03:21:28;;;;;;;0.30;0.30;;;;;;;16.76;90.60;100007.16;4852953;29;20058;-83
2023/08/17 03:24:00;;;;;;;0.38;0.38;;;;;;;16.83;90.27;100008.59;4841180;29;20069;-86
2023/08/17 03:26:29;;;;;;;0.40;0.40;;;;;;;16.90;89.79;99997.47;4836917;29;20045;-87
2023/08/17 03:28:58;;;;;;;0.30;0.30;;;;;;;16.92;89.58;99992.59;4858851;29;20049;-85
2023/08/17 03:31:26;;;;;;;0.40;0.40;;;;;;;17.06;89.41;100012.03;4843460;29;20083;-84
2023/08/17 03:33:55;;;;;;;0.40;0.40;;;;;;;17.15;89.04;100010.47;4843040;29;20482;-84
2023/08/17 03:36:22;;;;;;;0.40;0.40;;;;;;;17.22;88.69;100011.06;4828429;29;20102;-84
2023/08/17 03:38:50;;;;;;;0.40;0.40;;;;;;;17.31;88.50;100005.91;4845266;29;20053;-83
2023/08/17 03:41:18;;;;;;;0.40;0.40;;;;;;;17.44;87.93;100001.88;4878421;29;20061;-84
2023/08/17 03:43:45;;;;;;;0.40;0.40;;;;;;;17.51;87.68;100016.09;4830636;29;20049;-84
2023/08/17 03:46:13;;;;;;;0.30;0.30;;;;;;;17.60;87.39;100013.69;4859515;29;20080;-84
2023/08/17 03:48:40;;;;;;;0.40;0.40;;;;;;;17.76;86.86;100004.47;4859645;29;20078;-83
2023/08/17 03:51:08;;;;;;;0.40;0.40;;;;;;;17.90;86.34;100008.38;4847171;29;20416;-84
2023/08/17 03:53:35;;;;;;;0.30;0.30;;;;;;;17.96;85.90;100011.94;4861455;29;20072;-84
2023/08/17 03:56:02;;;;;;;0.40;0.40;;;;;;;17.98;85.36;99999.66;4877834;29;20101;-84
2023/08/17 03:58:34;;;;;;;0.40;0.40;;;;;;;18.06;85.16;100001.03;4823413;29;20145;-84
2023/08/17 04:01:03;;;;;;;0.30;0.30;;;;;;;18.21;85.70;100008.47;4838748;29;20431;-84
2023/08/17 04:03:31;;;;;;;0.30;0.30;;;;;;;18.24;85.87;100001.63;4808652;29;20086;-83
2023/08/17 04:06:04;;;;;;;0.30;0.30;;;;;;;18.34;85.83;100001.66;4823135;29;20436;-84
2023/08/17 04:08:32;;;;;;;0.40;0.40;;;;;;;18.45;84.82;100002.47;4838226;29;20061;-85
2023/08/17 04:10:59;;;;;;;0.30;0.30;;;;;;;18.55;83.86;100011.47;4838603;29;20054;-84
2023/08/17 04:13:27;;;;;;;0.30;0.30;;;;;;;18.67;82.73;100016.69;4823786;29;20049;-84
2023/08/17 04:15:54;;;;;;;0.40;0.40;;;;;;;18.81;82.02;100011.50;4840729;29;20046;-85
2023/08/17 04:18:21;;;;;;;0.30;0.30;;;;;;;18.95;80.65;100015.34;4822948;29;20144;-84
2023/08/17 04:20:49;;;;;;;0.38;0.38;;;;;;;19.05;79.98;100012.59;4822953;29;20066;-85
2023/08/17 04:23:20;;;;;;;0.30;0.30;;;;;;;19.20;78.87;100014.47;4823355;29;20153;-85
2023/08/17 04:25:48;;;;;;;0.40;0.40;;;;;;;19.33;78.75;100015.81;4823446;29;20050;-85
2023/08/17 04:28:15;;;;;;;0.30;0.30;;;;;;;19.39;78.24;100005.66;4807587;29;20080;-85
2023/08/17 04:30:44;;;;;;;0.30;0.30;;;;;;;19.53;78.80;100009.44;4823924;29;20058;-85
2023/08/17 04:33:12;;;;;;;0.30;0.30;;;;;;;19.67;77.95;100013.28;4855510;29;20492;-85
2023/08/17 04:35:40;;;;;;;0.30;0.30;;;;;;;19.82;77.51;100012.34;4835246;29;20057;-84
2023/08/17 04:38:09;;;;;;;0.30;0.30;;;;;;;20.00;76.32;100021.03;4858299;29;20545;-83
2023/08/17 04:40:38;;;;;;;0.30;0.30;;;;;;;20.05;75.64;100016.38;4858814;29;20061;-83
2023/08/17 04:43:10;;;;;;;0.40;0.40;;;;;;;20.20;74.68;100015.44;4841964;29;20057;-86
2023/08/17 04:45:38;;;;;;;0.30;0.30;;;;;;;20.34;74.63;100021.13;4858135;29;20525;-84
2023/08/17 04:48:09;;;;;;;0.30;0.30;;;;;;;20.50;74.40;100024.56;4841961;29;20056;-84
2023/08/17 04:50:36;;;;;;;0.38;0.38;;;;;;;20.63;73.76;100018.44;4857218;29;20062;-85
2023/08/17 04:53:03;;;;;;;0.30;0.30;;;;;;;20.71;72.96;100017.84;4842244;29;20403;-85
2023/08/17 04:55:31;;;;;;;0.35;0.35;;;;;;;20.90;72.52;100030.84;4862780;29;20057;-84
2023/08/17 04:57:59;;;;;;;0.30;0.30;;;;;;;21.00;71.83;100028.84;4846165;29;20569;-85
2023/08/17 05:00:28;;;;;;;0.30;0.30;;;;;;;21.09;70.02;100017.22;4816010;29;20084;-84
2023/08/17 05:02:56;;;;;;;0.30;0.30;;;;;;;21.27;69.43;100024.75;4831095;29;20469;-84
2023/08/17 05:05:27;;;;;;;0.30;0.30;;;;;;;21.36;69.06;100031.22;4830894;29;20046;-84
2023/08/17 05:08:07;;;;;;;0.30;0.30;;;;;;;21.39;67.63;100021.59;4846344;29;20060;-85
2023/08/17 05:11:13;;;;;;;0.30;0.30;;;;;;;21.35;66.57;100001.31;4845570;29;20051;-86
2023/08/17 05:13:40;;;;;;;0.30;0.30;;;;;;;21.53;66.19;100025.28;4845586;29;20567;-85
2023/08/17 05:16:59;;;;;;;;;;;;;;;;;;;;;
2023/08/17 05:20:20;;;;;;;0.30;0.30;;;;;;;21.69;64.45;100005.88;4861993;29;20072;-86
2023/08/17 05:32:55;;;;;;;0.30;0.30;;;;;;;22.05;61.44;100014.47;4822278;29;20045;-86
2023/08/17 05:35:35;;;;;;;0.30;0.30;;;;;;;22.15;60.78;100013.50;4846500;29;20064;-85
2023/08/17 05:38:04;;;;;;;0.30;0.30;;;;;;;22.32;61.17;100030.31;4844958;29;20149;-85
2023/08/17 05:40:32;;;;;;;0.30;0.30;;;;;;;22.44;60.18;100038.13;4814658;29;20053;-86
2023/08/17 05:42:59;;;;;;;0.30;0.30;;;;;;;22.53;59.96;100027.25;4860919;29;20050;-86
2023/08/17 05:45:27;;;;;;;0.30;0.30;;;;;;;22.57;60.01;100017.31;4860702;29;20053;-85
2023/08/17 05:47:54;;;;;;;0.30;0.30;;;;;;;22.61;60.32;100023.81;4844446;29;20052;-85
2023/08/17 05:50:21;;;;;;;0.30;0.30;;;;;;;22.68;60.38;100021.50;4861241;29;20062;-85
2023/08/17 05:52:53;;;;;;;0.30;0.30;;;;;;;22.68;60.02;100016.81;4861167;29;20061;-86
2023/08/17 05:55:22;;;;;;;0.30;0.30;;;;;;;22.78;60.13;100021.34;4845249;29;20106;-85
2023/08/17 05:57:50;;;;;;;0.30;0.30;;;;;;;22.86;59.23;100017.88;4860963;29;20045;-87
2023/08/17 06:00:20;;;;;;;0.30;0.30;;;;;;;23.00;58.67;100017.16;4860307;29;20140;-86
2023/08/17 06:02:51;;;;;;;0.30;0.30;;;;;;;22.98;58.67;100009.19;4844271;29;20073;-85
2023/08/17 06:05:18;;;;;;;0.28;0.28;;;;;;;23.17;58.25;100017.41;4860733;29;20067;-86
2023/08/17 06:07:45;;;;;;;0.30;0.30;;;;;;;23.27;57.80;100022.72;4860644;29;20421;-87
2023/08/17 06:10:12;;;;;;;0.30;0.30;;;;;;;23.33;57.65;100021.47;4860878;29;20109;-84
2023/08/17 06:12:40;;;;;;;0.30;0.30;;;;;;;23.38;57.80;100028.84;4830267;29;20122;-86
2023/08/17 06:15:09;;;;;;;0.30;0.30;;;;;;;23.41;57.56;100028.22;4860704;29;20053;-84
2023/08/17 06:17:39;;;;;;;0.30;0.30;;;;;;;23.48;57.76;100017.63;4860405;29;20063;-85
2023/08/17 06:20:09;;;;;;;0.30;0.30;;;;;;;23.58;55.91;100024.88;4923918;24;1403712;-86
2023/08/17 06:22:37;;;;;;;0.30;0.30;;;;;;;23.65;56.05;100014.25;4842909;29;20107;-85
2023/08/17 06:25:08;;;;;;;0.20;0.20;;;;;;;23.68;53.57;100013.63;4827373;29;20172;-86
2023/08/17 06:27:36;;;;;;;0.30;0.30;;;;;;;23.64;52.86;100015.34;4843416;29;20046;-85
2023/08/17 06:30:04;;;;;;;0.20;0.20;;;;;;;23.62;53.18;100020.34;4843463;29;20089;-84
2023/08/17 06:32:33;;;;;;;0.30;0.30;;;;;;;23.70;53.21;100024.31;4843109;29;20888;-85
2023/08/17 06:35:00;;;;;;;0.30;0.30;;;;;;;23.87;53.76;100018.22;4854730;29;20046;-85
2023/08/17 06:37:30;;;;;;;0.30;0.30;;;;;;;24.02;52.96;100020.66;4861007;29;20042;-85
2023/08/17 06:39:58;;;;;;;0.20;0.20;;;;;;;23.98;52.60;100019.66;4859267;29;20050;-85
2023/08/17 07:14:13;;;;;;;0.30;0.30;;;;;;;24.41;50.13;99994.41;4767002;30;20167;-86
2023/08/17 07:16:40;;;;;;;0.28;0.28;;;;;;;24.37;50.46;100019.03;4752005;30;20051;-85
2023/08/17 07:19:07;;;;;;;0.30;0.30;;;;;;;24.35;50.56;100014.94;4767451;30;20056;-84
2023/08/17 07:21:37;;;;;;;0.20;0.20;;;;;;;24.45;50.89;100017.50;4737696;30;20059;-86
2023/08/17 07:24:14;;;;;;;0.20;0.20;;;;;;;24.53;50.95;100013.16;4767219;30;20150;-85
2023/08/17 07:26:42;;;;;;;0.20;0.20;;;;;;;24.71;51.26;100009.38;4767845;30;20059;-86
2023/08/17 07:29:09;;;;;;;0.30;0.30;;;;;;;24.98;50.16;100016.72;4752331;30;20635;-87
2023/08/17 07:31:37;;;;;;;0.25;0.25;;;;;;;25.28;49.54;100006.81;4768302;30;20140;-83
2023/08/17 07:34:06;;;;;;;0.30;0.30;;;;;;;25.57;48.92;100010.19;4767884;30;20052;-84
2023/08/17 07:36:33;;;;;;;0.30;0.30;;;;;;;25.74;48.60;100002.75;4768094;30;20105;-85
2023/08/17 07:39:01;;;;;;;0.20;0.20;;;;;;;25.76;47.79;99996.91;4753712;30;20522;-87
2023/08/17 07:41:28;;;;;;;0.30;0.30;;;;;;;25.82;48.50;100006.66;4767231;30;20824;-85
2023/08/17 07:43:55;;;;;;;0.20;0.20;;;;;;;26.05;47.51;99998.28;4753239;30;20124;-87
2023/08/17 07:46:23;;;;;;;0.30;0.30;;;;;;;26.26;46.91;100006.75;4767456;30;20048;-86
2023/08/17 07:48:50;;;;;;;0.22;0.22;;;;;;;26.43;46.13;99989.31;4767076;30;20212;-86
2023/08/17 07:51:18;;;;;;;0.30;0.30;;;;;;;26.84;45.56;100004.59;4838936;29;20088;-85
2023/08/17 07:53:45;;;;;;;0.30;0.30;;;;;;;26.95;45.20;99983.72;4859567;29;20057;-85
2023/08/17 07:56:13;;;;;;;0.20;0.20;;;;;;;27.03;45.20;99996.72;4843237;29;20073;-86
2023/08/17 07:58:40;;;;;;;0.30;0.30;;;;;;;26.97;45.45;100004.41;4845577;29;20057;-86
2023/08/17 08:01:07;;;;;;;0.20;0.20;;;;;;;27.10;44.82;99996.22;4859960;29;20053;-87
2023/08/17 08:03:35;;;;;;;0.30;0.30;;;;;;;27.20;44.85;100002.25;4859938;29;20136;-85
2023/08/17 08:06:02;;;;;;;0.30;0.30;;;;;;;27.38;44.08;100000.22;4859988;29;20141;-84
2023/08/17 08:08:29;;;;;;;0.28;0.28;;;;;;;27.51;43.97;99998.34;4859655;29;20062;-84
2023/08/17 08:10:56;;;;;;;0.30;0.30;;;;;;;27.53;43.17;100003.59;4859959;29;20077;-85
2023/08/17 08:13:24;;;;;;;0.30;0.30;;;;;;;27.51;43.33;100001.13;4872134;29;20091;-85
2023/08/17 08:15:51;;;;;;;0.30;0.30;;;;;;;27.56;43.46;100006.47;4862906;29;20052;-85
2023/08/17 08:18:18;;;;;;;0.30;0.30;;;;;;;27.54;42.72;99997.69;4879288;29;20060;-85
2023/08/17 08:20:45;;;;;;;0.30;0.30;;;;;;;27.58;42.49;99998.66;4878496;29;20057;-85
2023/08/17 08:23:23;;;;;;;0.30;0.30;;;;;;;27.98;41.42;99989.13;4877919;29;20049;-84
2023/08/17 08:25:50;;;;;;;0.30;0.30;;;;;;;28.44;39.71;99990.91;4877688;29;20402;-85
2023/08/17 08:28:18;;;;;;;0.30;0.30;;;;;;;28.80;39.10;99991.38;4860161;29;20486;-85
2023/08/17 08:30:45;;;;;;;0.30;0.30;;;;;;;28.81;38.85;99991.03;4877576;29;20045;-85
2023/08/17 08:33:17;;;;;;;0.30;0.30;;;;;;;29.00;38.27;99992.47;4845892;29;20051;-86
2023/08/17 08:35:45;;;;;;;0.30;0.30;;;;;;;29.15;38.56;99989.06;4877235;29;20076;-85
2023/08/17 08:38:14;;;;;;;0.30;0.30;;;;;;;29.37;37.83;99990.56;4860778;29;20093;-85
2023/08/17 08:40:42;;;;;;;0.30;0.30;;;;;;;29.59;37.41;99992.88;4830560;29;20051;-85
2023/08/17 08:43:12;;;;;;;0.30;0.30;;;;;;;30.07;35.85;99984.84;4861408;29;20126;-85
2023/08/17 08:45:41;;;;;;;0.30;0.30;;;;;;;30.33;35.11;99983.63;4845385;29;20069;-87
2023/08/17 08:48:16;;;;;;;0.30;0.30;;;;;;;30.37;35.23;99982.56;4877655;29;20424;-85
2023/08/17 08:50:46;;;;;;;0.30;0.30;;;;;;;30.65;35.36;99979.75;4856412;29;20068;-85
2023/08/17 08:53:14;;;;;;;0.30;0.30;;;;;;;30.86;34.48;99982.34;4826695;29;20057;-85
2023/08/17 08:55:47;;;;;;;0.30;0.30;;;;;;;30.82;34.45;99980.66;4841524;29;20053;-84
2023/08/17 08:58:18;;;;;;;0.30;0.30;;;;;;;30.95;34.09;99979.41;4856469;29;20478;-84
2023/08/17 09:00:47;;;;;;;0.30;0.30;;;;;;;31.34;34.09;99979.56;4856700;29;20057;-84
2023/08/17 09:03:20;;;;;;;0.30;0.30;;;;;;;31.53;33.25;99976.09;4856129;29;20057;-85
2023/08/17 09:05:48;;;;;;;0.30;0.30;;;;;;;31.73;32.90;99974.16;4811652;29;20587;-87
2023/08/17 09:08:36;;;;;;;0.30;0.30;;;;;;;31.45;32.85;99974.31;4841234;29;20582;-86
2023/08/17 09:11:03;;;;;;;0.30;0.30;;;;;;;31.67;32.65;99978.38;4843074;29;20060;-85
2023/08/17 09:13:30;;;;;;;0.30;0.30;;;;;;;31.51;32.79;99967.25;4860699;29;20510;-86
2023/08/17 09:16:01;;;;;;;0.30;0.30;;;;;;;31.76;32.34;99978.19;4856697;29;20068;-87
2023/08/17 09:18:35;;;;;;;0.30;0.30;;;;;;;31.55;32.65;99973.75;4856197;29;20080;-86
2023/08/17 09:21:05;;;;;;;0.30;0.30;;;;;;;31.89;32.11;99962.94;4856835;29;20055;-86
2023/08/17 09:23:32;;;;;;;0.30;0.30;;;;;;;32.27;31.98;99966.97;4841034;29;20045;-85
2023/08/17 09:26:08;;;;;;;0.30;0.30;;;;;;;32.29;31.67;99968.22;4856581;29;20235;-85
2023/08/17 09:28:38;;;;;;;0.30;0.30;;;;;;;32.78;31.25;99962.00;4870111;29;20053;-84
2023/08/17 09:31:06;;;;;;;0.30;0.30;;;;;;;32.83;29.62;99972.06;4880224;29;20147;-85
2023/08/17 09:33:35;;;;;;;0.30;0.30;;;;;;;33.07;29.61;99959.75;4893548;29;20052;-84
2023/08/17 09:36:03;;;;;;;0.30;0.30;;;;;;;33.18;29.73;99966.31;4885076;29;20060;-85
2023/08/17 09:38:30;;;;;;;0.30;0.30;;;;;;;33.07;29.81;99968.13;4860031;29;20458;-85
2023/08/17 09:40:58;;;;;;;0.30;0.30;;;;;;;33.24;29.72;99962.00;4848601;29;20051;-86
2023/08/17 09:43:28;;;;;;;0.30;0.30;;;;;;;33.49;29.35;99963.59;4880564;29;20053;-86
2023/08/17 09:45:56;;;;;;;0.30;0.30;;;;;;;33.49;29.31;99961.59;4879654;29;20072;-86
2023/08/17 09:48:24;;;;;;;0.30;0.30;;;;;;;33.31;29.69;99966.13;4849304;29;20076;-85
2023/08/17 09:50:52;;;;;;;0.30;0.30;;;;;;;33.44;29.61;99964.72;4864861;29;20053;-84
2023/08/17 09:53:19;;;;;;;0.30;0.30;;;;;;;33.57;29.47;99957.75;4880959;29;20161;-85
2023/08/17 09:55:47;;;;;;;0.30;0.30;;;;;;;33.70;29.60;99954.75;4864087;29;20148;-85
2023/08/17 09:58:17;;;;;;;0.20;0.20;;;;;;;34.30;28.61;99954.75;4863983;29;20053;-86
2023/08/17 10:00:46;;;;;;;0.30;0.30;;;;;;;34.64;28.13;99958.38;4863758;29;20156;-85
2023/08/17 10:03:19;;;;;;;0.20;0.20;;;;;;;34.71;28.36;99957.63;4880585;29;20057;-83
2023/08/17 10:06:09;;;;;;;0.30;0.30;;;;;;;35.04;27.76;99953.13;4881217;29;20097;-83
2023/08/17 10:08:45;;;;;;;0.30;0.30;;;;;;;35.02;27.58;99955.50;4879934;29;20064;-84
2023/08/17 10:11:13;;;;;;;0.20;0.20;;;;;;;35.14;27.74;99946.84;4864080;29;20079;-84
2023/08/17 10:13:51;;;;;;;0.30;0.30;;;;;;;35.00;27.20;99943.91;4863469;29;20109;-86
2023/08/17 10:16:32;;;;;;;0.30;0.30;;;;;;;35.40;27.14;99948.66;4879634;29;20060;-84
2023/08/17 10:19:36;;;;;;;0.30;0.30;;;;;;;35.73;26.44;99950.50;4864092;29;20121;-83
2023/08/17 10:22:11;;;;;;;0.23;0.23;;;;;;;36.13;26.17;99943.06;4863688;29;20049;-84
2023/08/17 10:24:45;;;;;;;0.30;0.30;;;;;;;36.20;26.04;99951.53;4864708;29;20056;-86
2023/08/17 10:27:13;;;;;;;0.30;0.30;;;;;;;36.44;25.81;99946.41;4863399;29;20053;-85
2023/08/17 10:29:42;;;;;;;0.22;0.22;;;;;;;36.08;25.94;99942.66;4863285;29;20049;-84
2023/08/17 10:32:10;;;;;;;0.30;0.30;;;;;;;36.30;26.08;99949.16;4848143;29;20057;-85
2023/08/17 10:34:48;;;;;;;0.22;0.22;;;;;;;36.62;25.23;99944.47;4879563;29;20057;-86
2023/08/17 10:37:17;;;;;;;0.30;0.30;;;;;;;36.75;25.40;99938.47;4879532;29;20521;-85
2023/08/17 10:39:46;;;;;;;0.30;0.30;;;;;;;36.72;24.96;99944.88;4862946;29;20049;-84
2023/08/17 10:42:14;;;;;;;0.30;0.30;;;;;;;36.63;25.26;99942.44;4862874;29;20078;-85
2023/08/17 10:44:48;;;;;;;0.25;0.25;;;;;;;36.53;25.16;99935.56;4863785;29;20140;-86
2023/08/17 10:47:31;;;;;;;0.30;0.30;;;;;;;36.67;25.17;99935.63;4878237;29;20616;-85
2023/08/17 10:50:23;;;;;;;0.30;0.30;;;;;;;36.66;25.22;99936.03;4879481;29;20082;-86
2023/08/17 10:52:53;;;;;;;0.30;0.30;;;;;;;36.58;24.71;99937.22;4862374;29;20486;-86
2023/08/17 10:55:40;;;;;;;0.30;0.30;;;;;;;36.90;24.40;99934.44;4878834;29;20091;-86
2023/08/17 10:58:08;;;;;;;0.30;0.30;;;;;;;37.21;24.58;99934.88;4881709;29;20105;-85
2023/08/17 11:00:42;;;;;;;0.20;0.20;;;;;;;37.37;24.67;99932.44;4879292;29;20060;-84
2023/08/17 11:03:19;;;;;;;0.30;0.30;;;;;;;37.80;24.21;99931.56;4862326;29;20068;-86
2023/08/17 11:05:50;;;;;;;0.30;0.30;;;;;;;37.43;23.60;99928.00;4862902;29;20048;-84
2023/08/17 11:08:27;;;;;;;0.30;0.30;;;;;;;37.57;23.31;99930.00;4862395;29;20045;-85
2023/08/17 11:11:01;;;;;;;0.30;0.30;;;;;;;37.77;23.72;99923.94;4878859;29;20139;-82
2023/08/17 11:13:32;;;;;;;0.30;0.30;;;;;;;37.89;23.83;99915.03;4861330;29;20060;-85
2023/08/17 11:16:00;;;;;;;0.30;0.30;;;;;;;37.77;23.75;99910.66;4878667;29;20056;-85
2023/08/17 11:18:32;;;;;;;0.30;0.30;;;;;;;37.88;23.22;99905.78;4878777;29;20135;-85
2023/08/17 11:21:01;;;;;;;0.30;0.30;;;;;;;37.43;24.29;99902.69;4878404;29;20135;-84
2023/08/17 11:23:30;;;;;;;0.30;0.30;;;;;;;37.80;24.13;99909.03;4862054;29;20167;-84
2023/08/17 11:25:57;;;;;;;0.20;0.20;;;;;;;37.93;22.98;99913.00;4846742;29;20139;-86
2023/08/17 11:28:36;;;;;;;0.30;0.30;;;;;;;37.56;23.40;99910.72;4862514;29;20072;-84
2023/08/17 11:31:10;;;;;;;0.30;0.30;;;;;;;37.85;24.20;99900.94;4869534;29;20052;-84
2023/08/17 11:33:38;;;;;;;0.30;0.30;;;;;;;38.11;23.12;99899.69;4880570;29;20127;-85
2023/08/17 11:36:07;;;;;;;0.30;0.30;;;;;;;38.24;23.12;99894.38;4878422;29;20438;-85
2023/08/17 11:38:42;;;;;;;0.30;0.30;;;;;;;38.30;23.78;99887.06;4878383;29;20144;-84
2023/08/17 11:41:10;;;;;;;0.30;0.30;;;;;;;38.35;23.55;99892.28;4862034;29;20101;-85
2023/08/17 11:43:42;;;;;;;0.30;0.30;;;;;;;38.59;22.83;99886.91;4862494;29;20049;-87
2023/08/17 11:46:10;;;;;;;0.20;0.20;;;;;;;38.96;22.48;99882.63;4878646;29;20401;-85
2023/08/17 11:48:38;;;;;;;0.30;0.30;;;;;;;39.14;22.39;99897.34;4877999;29;20135;-85
2023/08/17 11:51:06;;;;;;;0.20;0.20;;;;;;;39.19;21.79;99885.59;4879001;29;20061;-84
2023/08/17 11:53:34;;;;;;;0.30;0.30;;;;;;;38.88;23.34;99883.88;4862469;29;20057;-85
2023/08/17 11:56:03;;;;;;;0.30;0.30;;;;;;;38.97;21.91;99879.38;4861754;29;20512;-85
2023/08/17 11:58:42;;;;;;;;;;;;;;;38.83;22.67;99878.69;4878282;29;20491;-84
2023/08/17 12:01:15;;;;;;;0.30;0.30;;;;;;;38.84;22.54;99878.25;4878455;29;19935;-85
2023/08/17 12:03:44;;;;;;;0.30;0.30;;;;;;;39.23;22.43;99869.44;4846102;29;20137;-85
2023/08/17 12:06:15;;;;;;;0.30;0.30;;;;;;;39.40;22.42;99875.34;4861062;29;20045;-85
2023/08/17 12:08:44;;;;;;;0.30;0.30;;;;;;;39.50;21.18;99867.97;4862209;29;20537;-87
2023/08/17 12:11:17;;;;;;;0.30;0.30;;;;;;;39.43;21.97;99871.69;4877955;29;20521;-86
2023/08/17 12:13:53;;;;;;;0.28;0.28;;;;;;;39.37;22.16;99867.72;4861469;29;20084;-89
2023/08/17 12:16:23;;;;;;;0.30;0.30;;;;;;;39.69;21.94;99873.00;4878049;29;20136;-85
2023/08/17 12:18:52;;;;;;;0.20;0.20;;;;;;;39.94;21.59;99864.25;4877842;29;20064;-85
2023/08/17 12:21:21;;;;;;;0.22;0.22;;;;;;;40.48;20.82;99861.44;4877191;29;20072;-87
2023/08/17 12:23:49;;;;;;;0.20;0.20;;;;;;;40.90;20.24;99861.22;4860802;29;20424;-85
2023/08/17 12:29:19;;;;;;;0.23;0.23;;;;;;;41.02;20.28;99854.94;4215475;27;20513;-86